createdAt,value
2018-12-07T00:00:13.460Z,14.00
2018-12-07T00:02:41.636Z,11.77
2018-12-07T00:05:10.014Z,14.70
2018-12-07T00:07:38.294Z,14.87
2018-12-07T00:10:07.006Z,12.83
2018-12-07T00:12:35.210Z,15.50
2018-12-07T00:15:04.128Z,12.00
2018-12-07T00:17:32.343Z,10.50
2018-12-07T00:20:00.566Z,11.17
2018-12-07T00:22:28.744Z,11.90
2018-12-07T00:24:57.048Z,11.87
2018-12-07T00:27:25.232Z,12.00
2018-12-07T00:29:53.876Z,15.83
2018-12-07T00:32:22.053Z,11.63
2018-12-07T00:34:50.231Z,12.60
2018-12-07T00:37:18.420Z,14.17
2018-12-07T00:39:46.618Z,12.30
2018-12-07T00:42:14.790Z,14.57
2018-12-07T00:44:42.978Z,12.17
2018-12-07T00:47:11.204Z,11.53
2018-12-07T00:49:39.500Z,13.30
2018-12-07T00:52:07.790Z,13.13
2018-12-07T00:54:36.060Z,13.73
2018-12-07T00:57:04.370Z,17.73
2018-12-07T00:59:32.555Z,13.47
2018-12-07T01:02:00.807Z,14.77
2018-12-07T01:04:29.004Z,14.13
2018-12-07T01:06:58.218Z,17.47
2018-12-07T01:09:26.411Z,11.27
2018-12-07T01:11:54.606Z,13.03
2018-12-07T01:14:22.792Z,11.90
2018-12-07T01:16:51.039Z,13.30
2018-12-07T01:19:19.318Z,12.00
2018-12-07T01:21:47.496Z,10.30
2018-12-07T01:24:15.778Z,8.13
2018-12-07T01:26:43.952Z,9.23
2018-12-07T01:29:12.340Z,9.40
2018-12-07T01:31:40.616Z,9.13
2018-12-07T01:34:08.872Z,10.00
2018-12-07T01:36:37.083Z,8.33
2018-12-07T01:39:06.263Z,10.57
2018-12-07T01:41:34.475Z,8.67
2018-12-07T01:44:03.817Z,8.10
2018-12-07T01:46:32.002Z,10.80
2018-12-07T01:49:00.207Z,8.00
2018-12-07T01:51:28.420Z,8.93
2018-12-07T01:53:56.607Z,8.60
2018-12-07T01:56:24.785Z,8.37
2018-12-07T01:58:53.000Z,9.73
2018-12-07T02:01:21.188Z,8.13
2018-12-07T02:03:49.377Z,7.57
2018-12-07T02:06:17.593Z,7.57
2018-12-07T02:08:45.807Z,8.33
2018-12-07T02:11:14.037Z,8.07
2018-12-07T02:13:42.221Z,9.23
2018-12-07T02:16:10.500Z,9.37
2018-12-07T02:18:38.733Z,8.50
2018-12-07T02:21:06.935Z,12.37
2018-12-07T02:23:35.129Z,9.80
2018-12-07T02:26:03.326Z,8.97
2018-12-07T02:28:31.526Z,6.37
2018-12-07T02:30:59.746Z,6.43
2018-12-07T02:33:27.920Z,5.97
2018-12-07T02:35:56.130Z,7.57
2018-12-07T02:38:24.368Z,8.53
2018-12-07T02:40:53.517Z,4.93
2018-12-07T02:43:21.693Z,5.80
2018-12-07T02:45:49.973Z,4.97
2018-12-07T02:48:18.150Z,6.07
2018-12-07T02:50:46.348Z,6.80
2018-12-07T02:53:14.553Z,4.07
2018-12-07T02:55:42.761Z,6.77
2018-12-07T02:58:10.965Z,5.37
2018-12-07T03:00:39.141Z,7.33
2018-12-07T03:03:07.329Z,6.80
2018-12-07T03:05:35.510Z,5.57
2018-12-07T03:08:03.869Z,4.63
2018-12-07T03:10:32.067Z,4.40
2018-12-07T03:13:00.315Z,4.30
2018-12-07T03:15:28.526Z,6.00
2018-12-07T03:17:56.721Z,6.53
2018-12-07T03:20:24.941Z,5.00
2018-12-07T03:22:53.142Z,4.63
2018-12-07T03:25:21.400Z,5.10
2018-12-07T03:27:49.602Z,5.30
2018-12-07T03:30:18.314Z,4.33
2018-12-07T03:32:46.506Z,5.80
2018-12-07T03:35:14.672Z,5.43
2018-12-07T03:37:42.884Z,4.90
2018-12-07T03:40:11.084Z,5.23
2018-12-07T03:42:39.285Z,5.30
2018-12-07T03:45:07.539Z,5.10
2018-12-07T03:47:35.762Z,5.37
2018-12-07T03:50:04.777Z,6.37
2018-12-07T03:52:33.048Z,8.13
2018-12-07T03:55:01.265Z,7.27
2018-12-07T03:57:29.496Z,4.50
2018-12-07T03:59:57.769Z,5.53
2018-12-07T04:02:27.063Z,4.80
2018-12-07T04:04:55.357Z,3.87
2018-12-07T04:07:23.559Z,5.77
2018-12-07T04:09:51.781Z,4.73
2018-12-07T04:12:20.041Z,4.60
2018-12-07T04:14:48.201Z,3.50
2018-12-07T04:17:16.412Z,4.47
2018-12-07T04:19:44.613Z,4.20
2018-12-07T04:22:13.001Z,2.83
2018-12-07T04:24:41.235Z,4.17
2018-12-07T04:27:09.409Z,3.20
2018-12-07T04:29:37.617Z,4.10
2018-12-07T04:32:05.813Z,4.27
2018-12-07T04:34:34.003Z,3.00
2018-12-07T04:37:02.177Z,3.07
2018-12-07T04:39:30.475Z,2.60
2018-12-07T04:41:58.669Z,3.30
2018-12-07T04:44:26.865Z,3.50
2018-12-07T04:46:55.032Z,2.77
2018-12-07T04:49:23.244Z,4.87
2018-12-07T04:51:51.547Z,4.03
2018-12-07T04:54:19.746Z,5.10
2018-12-07T04:56:47.954Z,4.20
2018-12-07T04:59:16.174Z,5.30
2018-12-07T05:01:44.379Z,4.97
2018-12-07T05:04:12.562Z,3.33
2018-12-07T05:06:40.749Z,4.83
2018-12-07T05:09:09.970Z,4.20
2018-12-07T05:11:38.233Z,4.23
2018-12-07T05:14:06.457Z,3.87
2018-12-07T05:16:34.747Z,7.53
2018-12-07T05:19:02.951Z,3.97
2018-12-07T05:21:31.189Z,4.80
2018-12-07T05:23:59.401Z,5.90
2018-12-07T05:26:27.594Z,5.50
2018-12-07T05:28:55.785Z,5.90
2018-12-07T05:31:24.018Z,4.07
2018-12-07T05:33:52.229Z,4.27
2018-12-07T05:36:20.429Z,4.60
2018-12-07T05:38:48.621Z,5.13
2018-12-07T05:41:16.892Z,4.80
2018-12-07T05:43:55.508Z,3.50
2018-12-07T05:46:23.954Z,5.03
2018-12-07T05:48:52.176Z,5.40
2018-12-07T05:51:21.355Z,4.67
2018-12-07T05:53:49.545Z,5.33
2018-12-07T05:56:17.763Z,5.90
2018-12-07T05:58:46.001Z,9.17
2018-12-07T06:01:14.384Z,7.33
2018-12-07T06:03:42.659Z,4.60
2018-12-07T06:06:10.860Z,4.80
2018-12-07T06:08:39.066Z,5.27
2018-12-07T06:11:07.473Z,5.17
2018-12-07T06:13:35.649Z,4.87
2018-12-07T06:16:04.009Z,8.50
2018-12-07T06:18:32.769Z,8.27
2018-12-07T06:21:00.993Z,9.20
2018-12-07T06:23:29.250Z,10.50
2018-12-07T06:25:57.420Z,10.47
2018-12-07T06:28:25.614Z,10.03
2018-12-07T06:30:53.816Z,9.23
2018-12-07T06:33:22.092Z,8.57
2018-12-07T06:35:50.275Z,8.07
2018-12-07T06:38:18.462Z,9.50
2018-12-07T06:40:46.656Z,9.63
2018-12-07T06:43:14.970Z,10.57
2018-12-07T06:45:43.194Z,8.73
2018-12-07T06:48:11.469Z,8.60
2018-12-07T06:50:39.663Z,9.27
2018-12-07T06:53:07.963Z,10.93
2018-12-07T06:55:36.238Z,9.87
2018-12-07T06:58:04.393Z,7.73
2018-12-07T07:00:32.589Z,13.63
2018-12-07T07:03:00.859Z,8.17
2018-12-07T07:05:29.036Z,8.53
2018-12-07T07:07:57.226Z,8.90
2018-12-07T07:10:25.686Z,8.50
2018-12-07T07:12:53.880Z,10.43
2018-12-07T07:15:22.083Z,8.70
2018-12-07T07:17:50.304Z,8.87
2018-12-07T07:20:18.581Z,11.43
2018-12-07T07:22:46.761Z,9.83
2018-12-07T07:25:14.945Z,11.87
2018-12-07T07:27:43.184Z,9.57
2018-12-07T07:30:11.442Z,10.50
2018-12-07T07:32:40.606Z,11.37
2018-12-07T07:35:08.986Z,11.27
2018-12-07T07:37:37.323Z,7.80
2018-12-07T07:40:05.617Z,13.47
2018-12-07T07:42:33.853Z,11.03
2018-12-07T07:45:02.028Z,8.23
2018-12-07T07:47:30.203Z,10.83
2018-12-07T07:49:58.425Z,10.77
2018-12-07T07:52:26.643Z,8.57
2018-12-07T07:54:54.813Z,9.70
2018-12-07T07:57:23.029Z,12.03
2018-12-07T07:59:51.220Z,8.77
2018-12-07T08:02:19.581Z,9.07
2018-12-07T08:04:47.849Z,8.60
2018-12-07T08:07:16.039Z,13.83
2018-12-07T08:09:44.249Z,11.93
2018-12-07T08:12:12.460Z,10.00
2018-12-07T08:14:40.673Z,10.13
2018-12-07T08:17:08.979Z,8.10
2018-12-07T08:19:37.179Z,8.87
2018-12-07T08:22:05.363Z,10.30
2018-12-07T08:24:33.601Z,7.90
2018-12-07T08:27:01.837Z,8.37
2018-12-07T08:29:30.024Z,11.07
2018-12-07T08:31:58.237Z,10.40
2018-12-07T08:34:26.445Z,11.67
2018-12-07T08:36:54.618Z,7.90
2018-12-07T08:39:22.908Z,9.40
2018-12-07T08:41:51.097Z,12.03
2018-12-07T08:44:19.449Z,7.73
2018-12-07T08:46:47.681Z,10.00
2018-12-07T08:49:17.895Z,14.13
2018-12-07T08:51:46.200Z,9.30
2018-12-07T08:54:14.392Z,9.50
2018-12-07T08:56:42.584Z,11.47
2018-12-07T08:59:11.728Z,9.30
2018-12-07T09:01:39.920Z,6.77
2018-12-07T09:04:08.126Z,11.67
2018-12-07T09:06:36.344Z,8.07
2018-12-07T09:09:06.348Z,9.70
2018-12-07T09:11:34.558Z,7.10
2018-12-07T09:14:03.001Z,7.23
2018-12-07T09:16:31.843Z,8.60
2018-12-07T09:19:00.122Z,7.23
2018-12-07T09:21:28.357Z,6.70
2018-12-07T09:23:56.556Z,7.40
2018-12-07T09:26:24.820Z,8.83
2018-12-07T09:28:53.226Z,9.53
2018-12-07T09:31:21.712Z,6.73
2018-12-07T09:33:50.192Z,3.60
2018-12-07T09:36:18.476Z,5.00
2018-12-07T09:38:46.740Z,5.67
2018-12-07T09:41:14.892Z,4.30
2018-12-07T09:43:43.198Z,5.77
2018-12-07T09:46:11.410Z,4.73
2018-12-07T09:48:39.683Z,4.33
2018-12-07T09:51:07.884Z,3.57
2018-12-07T09:53:36.250Z,5.00
2018-12-07T09:56:04.508Z,3.13
2018-12-07T09:58:34.280Z,4.60
2018-12-07T10:01:02.675Z,5.07
2018-12-07T10:03:30.890Z,3.20
2018-12-07T10:05:59.397Z,3.47
2018-12-07T10:08:27.600Z,3.13
2018-12-07T10:10:55.777Z,3.30
2018-12-07T10:13:24.259Z,6.43
2018-12-07T10:15:52.532Z,2.93
2018-12-07T10:18:20.767Z,4.80
2018-12-07T10:20:50.972Z,3.80
2018-12-07T10:23:19.232Z,3.87
2018-12-07T10:25:47.570Z,4.50
2018-12-07T10:28:16.233Z,2.13
2018-12-07T10:30:44.532Z,2.43
2018-12-07T10:33:12.716Z,3.30
2018-12-07T10:35:41.101Z,4.50
2018-12-07T10:38:09.360Z,2.90
2018-12-07T10:40:37.641Z,6.20
2018-12-07T10:43:05.920Z,1.83
2018-12-07T10:45:34.121Z,1.90
2018-12-07T10:48:02.281Z,4.50
2018-12-07T10:50:30.577Z,1.30
2018-12-07T10:52:58.945Z,2.57
2018-12-07T10:55:27.197Z,3.67
2018-12-07T10:57:55.388Z,2.27
2018-12-07T11:00:29.381Z,3.03
2018-12-07T11:03:03.153Z,4.07
2018-12-07T11:05:37.077Z,1.80
2018-12-07T11:08:11.189Z,2.23
2018-12-07T11:10:52.312Z,1.47
2018-12-07T11:16:29.978Z,1.73
2018-12-07T11:19:03.975Z,2.07
2018-12-07T11:24:38.951Z,1.60
2018-12-07T11:27:11.077Z,2.30
2018-12-07T11:29:44.968Z,4.37
2018-12-07T11:32:16.041Z,2.33
2018-12-07T11:34:46.462Z,3.20
2018-12-07T11:37:14.886Z,3.47
2018-12-07T11:39:43.168Z,2.77
2018-12-07T11:42:11.571Z,1.83
2018-12-07T11:44:39.777Z,2.30
2018-12-07T11:47:08.010Z,4.00
2018-12-07T11:49:36.173Z,4.20
2018-12-07T11:52:04.421Z,2.07
2018-12-07T11:54:32.609Z,1.60
2018-12-07T11:57:00.905Z,3.10
2018-12-07T11:59:29.176Z,2.80
2018-12-07T12:01:57.340Z,1.83
2018-12-07T12:04:25.555Z,1.30
2018-12-07T12:06:53.772Z,1.67
2018-12-07T12:09:22.077Z,2.73
2018-12-07T12:11:50.240Z,2.20
2018-12-07T12:14:18.441Z,3.67
2018-12-07T12:16:46.657Z,2.40
2018-12-07T12:19:14.843Z,3.43
2018-12-07T12:21:43.151Z,3.10
2018-12-07T12:24:11.305Z,2.20
2018-12-07T12:26:39.533Z,2.00
2018-12-07T12:29:07.723Z,2.47
2018-12-07T12:31:35.897Z,1.57
2018-12-07T12:34:05.105Z,1.87
2018-12-07T12:36:33.345Z,1.60
2018-12-07T12:39:01.581Z,6.43
2018-12-07T12:41:29.745Z,2.70
2018-12-07T12:43:57.941Z,7.80
2018-12-07T12:46:26.181Z,4.03
2018-12-07T12:48:54.465Z,3.40
2018-12-07T12:51:22.645Z,2.67
2018-12-07T12:53:50.933Z,1.77
2018-12-07T12:56:19.147Z,3.47
2018-12-07T12:58:47.341Z,5.57
2018-12-07T13:01:15.513Z,2.17
2018-12-07T13:03:43.830Z,3.50
2018-12-07T13:06:12.085Z,4.60
2018-12-07T13:08:40.291Z,6.20
2018-12-07T13:11:08.761Z,4.90
2018-12-07T13:13:36.993Z,3.67
2018-12-07T13:16:05.197Z,4.90
2018-12-07T13:18:33.722Z,7.23
2018-12-07T13:21:02.134Z,5.87
2018-12-07T13:23:30.451Z,8.87
2018-12-07T13:25:58.856Z,4.33
2018-12-07T13:28:27.013Z,5.87
2018-12-07T13:30:55.239Z,7.47
2018-12-07T13:33:23.557Z,7.60
2018-12-07T13:35:51.846Z,9.47
2018-12-07T13:38:20.098Z,6.63
2018-12-07T13:40:48.401Z,5.97
2018-12-07T13:43:16.727Z,5.87
2018-12-07T13:45:45.098Z,6.37
2018-12-07T13:48:13.631Z,10.33
2018-12-07T13:50:42.193Z,8.13
2018-12-07T13:53:10.719Z,7.90
2018-12-07T13:55:38.998Z,7.70
2018-12-07T13:58:08.942Z,7.30
2018-12-07T14:00:37.215Z,7.83
2018-12-07T14:03:05.527Z,6.03
2018-12-07T14:05:33.830Z,8.13
2018-12-07T14:08:02.112Z,5.83
2018-12-07T14:10:30.373Z,6.53
2018-12-07T14:12:58.846Z,10.40
2018-12-07T14:15:27.212Z,10.17
2018-12-07T14:17:55.835Z,10.07
2018-12-07T14:20:24.064Z,11.43
2018-12-07T14:22:52.269Z,7.07
2018-12-07T14:25:20.658Z,5.03
2018-12-07T14:27:49.966Z,7.77
2018-12-07T14:30:18.236Z,10.23
2018-12-07T14:32:46.609Z,5.50
2018-12-07T14:35:15.164Z,8.90
2018-12-07T14:37:44.610Z,6.60
2018-12-07T14:40:13.031Z,7.50
2018-12-07T14:42:41.338Z,4.60
2018-12-07T14:45:09.915Z,6.47
2018-12-07T14:47:38.324Z,6.60
2018-12-07T14:50:06.786Z,4.60
2018-12-07T14:52:35.044Z,7.87
2018-12-07T14:55:03.992Z,6.23
2018-12-07T14:57:32.315Z,3.60
2018-12-07T15:00:00.583Z,4.63
2018-12-07T15:02:28.971Z,5.97
2018-12-07T15:04:57.231Z,3.10
2018-12-07T15:07:25.754Z,4.43
2018-12-07T15:09:54.306Z,5.23
2018-12-07T15:12:23.045Z,5.30
2018-12-07T15:14:52.665Z,7.10
2018-12-07T15:17:21.230Z,5.07
2018-12-07T15:19:49.701Z,5.40
2018-12-07T15:22:18.127Z,5.83
2018-12-07T15:24:46.540Z,6.13
2018-12-07T15:27:14.868Z,4.00
2018-12-07T15:29:43.168Z,4.70
2018-12-07T15:32:11.657Z,6.07
2018-12-07T15:34:40.155Z,7.37
2018-12-07T15:37:08.741Z,9.53
2018-12-07T15:39:37.235Z,7.27
2018-12-07T15:42:05.651Z,6.87
2018-12-07T15:44:34.274Z,9.77
2018-12-07T15:47:02.800Z,7.33
2018-12-07T15:49:31.088Z,7.00
2018-12-07T15:51:59.357Z,6.43
2018-12-07T15:54:27.613Z,7.27
2018-12-07T15:56:56.401Z,6.30
2018-12-07T15:59:24.743Z,5.70
2018-12-07T16:01:52.993Z,7.73
2018-12-07T16:04:21.232Z,9.77
2018-12-07T16:06:49.588Z,9.10
2018-12-07T16:09:18.062Z,8.80
2018-12-07T16:11:46.337Z,12.37
2018-12-07T16:14:14.757Z,9.27
2018-12-07T16:16:43.117Z,16.40
2018-12-07T16:19:11.487Z,13.37
2018-12-07T16:21:39.898Z,12.60
2018-12-07T16:24:08.292Z,16.63
2018-12-07T16:26:36.774Z,13.73
2018-12-07T16:29:05.981Z,15.63
2018-12-07T16:31:34.713Z,17.20
2018-12-07T16:34:03.212Z,16.13
2018-12-07T16:36:31.812Z,19.93
2018-12-07T16:39:00.277Z,19.97
2018-12-07T16:41:28.732Z,18.13
2018-12-07T16:43:57.222Z,19.07
2018-12-07T16:46:25.496Z,13.33
2018-12-07T16:48:54.005Z,12.80
2018-12-07T16:51:22.525Z,13.10
2018-12-07T16:53:50.823Z,13.07
2018-12-07T16:56:19.300Z,9.97
2018-12-07T16:58:48.215Z,12.57
2018-12-07T17:01:16.525Z,16.90
2018-12-07T17:03:44.781Z,12.60
2018-12-07T17:06:13.662Z,15.83
2018-12-07T17:08:41.988Z,16.67
2018-12-07T17:11:10.260Z,13.57
2018-12-07T17:13:38.720Z,10.43
2018-12-07T17:16:07.093Z,18.27
2018-12-07T17:18:35.617Z,12.50
2018-12-07T17:21:03.887Z,15.60
2018-12-07T17:23:32.227Z,13.80
2018-12-07T17:26:00.712Z,16.23
2018-12-07T17:28:29.103Z,16.23
2018-12-07T17:30:57.321Z,13.83
2018-12-07T17:33:25.829Z,15.57
2018-12-07T17:35:54.429Z,16.90
2018-12-07T17:38:22.853Z,11.10
2018-12-07T17:40:51.091Z,13.27
2018-12-07T17:43:19.495Z,7.60
2018-12-07T17:45:47.851Z,8.37
2018-12-07T17:48:16.185Z,13.03
2018-12-07T17:50:44.584Z,9.33
2018-12-07T17:53:13.147Z,11.37
2018-12-07T17:55:41.689Z,9.90
2018-12-07T17:58:10.014Z,11.53
2018-12-07T18:00:38.373Z,9.83
2018-12-07T18:03:06.583Z,7.80
2018-12-07T18:05:34.853Z,7.17
2018-12-07T18:08:03.274Z,11.53
2018-12-07T18:10:32.583Z,10.13
2018-12-07T18:13:00.853Z,9.03
2018-12-07T18:15:29.400Z,11.70
2018-12-07T18:17:57.955Z,12.63
2018-12-07T18:20:26.256Z,12.97
2018-12-07T18:22:54.568Z,11.63
2018-12-07T18:25:23.075Z,11.70
2018-12-07T18:27:51.444Z,17.77
2018-12-07T18:30:19.954Z,17.53
2018-12-07T18:32:48.495Z,19.57
2018-12-07T18:35:16.900Z,14.37
2018-12-07T18:37:45.336Z,15.57
2018-12-07T18:40:13.708Z,11.63
2018-12-07T18:42:42.207Z,14.23
2018-12-07T18:45:10.546Z,17.30
2018-12-07T18:47:38.958Z,13.50
2018-12-07T18:50:08.299Z,16.33
2018-12-07T18:52:37.350Z,15.43
2018-12-07T18:55:06.785Z,21.63
2018-12-07T18:57:35.214Z,19.83
2018-12-07T19:00:05.131Z,17.90
2018-12-07T19:02:33.602Z,19.73
2018-12-07T19:05:02.333Z,17.53
2018-12-07T19:07:30.652Z,19.63
2018-12-07T19:09:59.041Z,25.13
2018-12-07T19:12:27.482Z,22.43
2018-12-07T19:14:56.106Z,17.20
2018-12-07T19:17:24.629Z,16.43
2018-12-07T19:19:53.022Z,20.87
2018-12-07T19:22:21.243Z,21.20
2018-12-07T19:24:49.716Z,23.77
2018-12-07T19:27:18.307Z,20.83
2018-12-07T19:29:46.942Z,17.60
2018-12-07T19:32:15.580Z,19.03
2018-12-07T19:34:43.990Z,25.33
2018-12-07T19:37:12.431Z,16.10
2018-12-07T19:39:40.671Z,20.13
2018-12-07T19:42:08.956Z,24.53
2018-12-07T19:44:37.458Z,21.30
2018-12-07T19:47:05.790Z,21.73
2018-12-07T19:49:34.517Z,15.77
2018-12-07T19:52:02.910Z,18.70
2018-12-07T19:54:31.182Z,15.00
2018-12-07T19:56:59.372Z,22.37
2018-12-07T19:59:27.835Z,18.77
2018-12-07T20:01:56.483Z,20.97
2018-12-07T20:04:25.039Z,17.20
2018-12-07T20:06:53.734Z,20.37
2018-12-07T20:09:22.232Z,15.10
2018-12-07T20:11:50.512Z,16.00
2018-12-07T20:14:18.707Z,27.63
2018-12-07T20:16:47.155Z,24.70
2018-12-07T20:19:15.677Z,16.50
2018-12-07T20:21:46.094Z,21.80
2018-12-07T20:24:14.469Z,28.17
2018-12-07T20:26:42.810Z,18.53
2018-12-07T20:29:11.334Z,22.43
2018-12-07T20:31:40.676Z,21.30
2018-12-07T20:34:09.058Z,16.27
2018-12-07T20:36:37.304Z,21.33
2018-12-07T20:39:07.109Z,27.10
2018-12-07T20:41:35.938Z,21.00
2018-12-07T20:44:05.327Z,17.87
2018-12-07T20:46:34.451Z,21.50
2018-12-07T20:49:04.713Z,22.73
2018-12-07T20:51:33.132Z,23.13
2018-12-07T20:54:01.557Z,20.73
2018-12-07T20:56:29.799Z,17.30
2018-12-07T20:58:58.324Z,20.07
2018-12-07T21:01:26.946Z,20.13
2018-12-07T21:04:26.455Z,16.20
2018-12-07T21:13:37.320Z,14.53
2018-12-07T21:16:28.829Z,21.17
2018-12-07T21:18:57.203Z,19.07
2018-12-07T21:21:28.438Z,19.60
2018-12-07T21:23:55.939Z,16.67
2018-12-07T21:26:24.448Z,22.87
2018-12-07T21:28:52.913Z,17.70
2018-12-07T21:31:21.148Z,21.97
2018-12-07T21:33:52.682Z,17.37
2018-12-07T21:36:38.516Z,18.17
2018-12-07T21:39:15.660Z,20.23
2018-12-07T21:41:43.968Z,20.37
2018-12-07T21:44:12.446Z,27.63
2018-12-07T21:46:41.194Z,15.43
2018-12-07T21:49:09.636Z,23.60
2018-12-07T21:51:44.915Z,18.57
2018-12-07T21:54:13.285Z,19.87
2018-12-07T21:56:41.475Z,20.43
2018-12-07T21:59:10.408Z,23.13
2018-12-07T22:01:38.601Z,19.87
2018-12-07T22:04:06.825Z,12.67
2018-12-07T22:06:35.551Z,17.90
2018-12-07T22:09:06.258Z,22.50
2018-12-07T22:11:34.851Z,20.23
2018-12-07T22:14:04.153Z,14.50
2018-12-07T22:16:32.448Z,18.27
2018-12-07T22:19:00.753Z,28.17
2018-12-07T22:21:29.063Z,20.73
2018-12-07T22:23:57.356Z,21.87
2018-12-07T22:26:25.999Z,21.50
2018-12-07T22:28:54.273Z,23.00
2018-12-07T22:31:22.542Z,25.53
2018-12-07T22:33:52.008Z,24.03
2018-12-07T22:36:20.428Z,22.33
2018-12-07T22:38:48.837Z,27.37
2018-12-07T22:41:17.266Z,19.97
2018-12-07T22:43:45.663Z,25.27
2018-12-07T22:46:13.860Z,18.83
2018-12-07T22:48:42.189Z,25.47
2018-12-07T22:51:10.447Z,20.40
2018-12-07T22:53:38.689Z,19.80
2018-12-07T22:56:07.914Z,16.97
2018-12-07T22:58:36.113Z,22.90
2018-12-07T23:01:04.565Z,26.00
2018-12-07T23:03:32.910Z,23.47
2018-12-07T23:06:01.084Z,21.47
2018-12-07T23:08:29.273Z,24.63
2018-12-07T23:10:57.456Z,25.87
2018-12-07T23:13:25.839Z,15.63
2018-12-07T23:15:54.044Z,21.47
2018-12-07T23:18:22.225Z,23.40
2018-12-07T23:20:50.416Z,26.17
2018-12-07T23:23:18.641Z,33.03
2018-12-07T23:25:46.877Z,20.80
2018-12-07T23:28:19.436Z,20.13
2018-12-07T23:30:45.490Z,22.20
2018-12-07T23:33:13.731Z,22.60
2018-12-07T23:35:42.037Z,28.53
2018-12-07T23:38:10.206Z,20.67
2018-12-07T23:40:38.488Z,24.97
2018-12-07T23:43:08.716Z,19.47
2018-12-07T23:45:36.973Z,28.27
2018-12-07T23:48:05.161Z,22.77
2018-12-07T23:50:33.396Z,21.80
2018-12-07T23:53:01.728Z,15.73
2018-12-07T23:55:29.966Z,21.10
2018-12-07T23:57:58.211Z,22.50
